Time;durP1;ratioP1;P1;durP2;ratioP2;P2;SDS_P1;SDS_P2;PMS_P1;PMS_P2;Temp;Humidity;BMP_temperature;BMP_pressure;BME280_temperature;BME280_humidity;BME280_pressure;Samples;Min_cycle;Max_cycle;Signal;HPM_P1;HPM_P2
2023/08/23 00:01:18;;;;;;;;;;;;;;;;;;5015085;28;19906;-72
2023/08/23 00:03:44;;;;;;;;;;;;;;;;;;5015043;28;19905;-71
2023/08/23 00:06:09;;;;;;;;;;;;;;;;;;5015139;28;20266;-72
2023/08/23 00:08:35;;;;;;;;;;;;;;;;;;5014266;28;20308;-72
2023/08/23 00:11:01;;;;;;;;;;;;;;;;;;5014808;28;19913;-72
2023/08/23 00:13:27;;;;;;;;;;;;;;;;;;5014777;28;19905;-72
2023/08/23 00:15:53;;;;;;;;;;;;;;;;;;5014817;28;20407;-72
2023/08/23 00:18:19;;;;;;;;;;;;;;;;;;5014107;28;19905;-72
2023/08/23 00:20:45;;;;;;;;;;;;;;;;;;5014673;28;19905;-71
2023/08/23 00:23:11;;;;;;;;;;;;;;;;;;5014827;28;19906;-72
2023/08/23 00:25:37;;;;;;;;;;;;;;;;;;5014601;28;19905;-72
2023/08/23 00:28:02;;;;;;;;;;;;;;;;;;5013820;28;19906;-72
2023/08/23 00:30:28;;;;;;;;;;;;;;;;;;5014438;28;20396;-73
2023/08/23 00:32:54;;;;;;;;;;;;;;;;;;5014670;28;19905;-72
2023/08/23 00:35:20;;;;;;;;;;;;;;;;;;5014394;28;19909;-72
2023/08/23 00:37:46;;;;;;;;;;;;;;;;;;5013807;28;19906;-72
2023/08/23 00:40:12;;;;;;;;;;;;;;;;;;5014369;28;19917;-73
2023/08/23 00:42:38;;;;;;;;;;;;;;;;;;5014498;28;19912;-72
2023/08/23 00:45:04;;;;;;;;;;;;;;;;;;5014280;28;19912;-72
2023/08/23 00:47:30;;;;;;;;;;;;;;;;;;5012130;28;19905;-72
2023/08/23 00:49:57;;;;;;;;;;;;;;;;;;5014332;28;19912;-72
2023/08/23 00:52:23;;;;;;;;;;;;;;;;;;5014080;28;20379;-72
2023/08/23 00:54:49;;;;;;;;;;;;;;;;;;5014141;28;20008;-72
2023/08/23 00:57:15;;;;;;;;;;;;;;;;;;5013246;28;20484;-71
2023/08/23 00:59:41;;;;;;;;;;;;;;;;;;5014181;28;19910;-72
2023/08/23 01:02:07;;;;;;;;;;;;;;;;;;5013313;28;19906;-72
2023/08/23 01:04:33;;;;;;;;;;;;;;;;;;4996375;28;19913;-72
2023/08/23 01:06:59;;;;;;;;;;;;;;;;;;5013758;28;19909;-72
2023/08/23 01:09:25;;;;;;;;;;;;;;;;;;5013437;28;19905;-71
2023/08/23 01:11:50;;;;;;;;;;;;;;;;;;5013569;28;20533;-71
2023/08/23 01:14:16;;;;;;;;;;;;;;;;;;5013910;28;19952;-73
2023/08/23 01:16:42;;;;;;;;;;;;;;;;;;5013659;28;19928;-72
2023/08/23 01:19:08;;;;;;;;;;;;;;;;;;5013253;28;19906;-72
2023/08/23 01:21:34;;;;;;;;;;;;;;;;;;5013403;28;20387;-72
2023/08/23 01:24:07;;;;;;;;;;;;;;;;;;5013614;28;19951;-70
2023/08/23 01:26:33;;;;;;;;;;;;;;;;;;5013366;28;20369;-71
2023/08/23 01:28:59;;;;;;;;;;;;;;;;;;5012690;28;19912;-71
2023/08/23 01:31:25;;;;;;;;;;;;;;;;;;5013123;28;19917;-72
2023/08/23 01:33:51;;;;;;;;;;;;;;;;;;5013157;28;20370;-71
2023/08/23 01:36:16;;;;;;;;;;;;;;;;;;5013010;28;19905;-70
2023/08/23 01:38:42;;;;;;;;;;;;;;;;;;5012294;28;19913;-72
2023/08/23 01:41:08;;;;;;;;;;;;;;;;;;5012837;28;19912;-70
2023/08/23 01:43:34;;;;;;;;;;;;;;;;;;5012951;28;19905;-71
2023/08/23 01:46:00;;;;;;;;;;;;;;;;;;5013145;28;19935;-71
2023/08/23 01:48:26;;;;;;;;;;;;;;;;;;5012375;28;20428;-70
2023/08/23 01:50:52;;;;;;;;;;;;;;;;;;5013092;28;19920;-71
2023/08/23 01:53:18;;;;;;;;;;;;;;;;;;4995507;28;20337;-71
2023/08/23 01:55:47;;;;;;;;;;;;;;;;;;5012654;28;19910;-71
2023/08/23 01:58:12;;;;;;;;;;;;;;;;;;5012389;28;19910;-71
2023/08/23 02:00:38;;;;;;;;;;;;;;;;;;5012875;28;19912;-71
2023/08/23 02:03:04;;;;;;;;;;;;;;;;;;5013049;28;19905;-71
2023/08/23 02:05:30;;;;;;;;;;;;;;;;;;5012839;28;19925;-71
2023/08/23 02:07:56;;;;;;;;;;;;;;;;;;5012205;28;20304;-71
2023/08/23 02:10:22;;;;;;;;;;;;;;;;;;5012705;28;19905;-71
2023/08/23 02:12:48;;;;;;;;;;;;;;;;;;5012752;28;19932;-71
2023/08/23 02:15:14;;;;;;;;;;;;;;;;;;5012735;28;19912;-71
2023/08/23 02:17:40;;;;;;;;;;;;;;;;;;5012003;28;19945;-73
2023/08/23 02:20:06;;;;;;;;;;;;;;;;;;5012757;28;20019;-72
2023/08/23 02:22:32;;;;;;;;;;;;;;;;;;5013081;28;19915;-71
2023/08/23 02:24:58;;;;;;;;;;;;;;;;;;5014268;28;20004;-71
2023/08/23 02:27:24;;;;;;;;;;;;;;;;;;5013135;28;19906;-72
2023/08/23 02:29:49;;;;;;;;;;;;;;;;;;5012707;28;19910;-72
2023/08/23 02:32:16;;;;;;;;;;;;;;;;;;5012751;28;20396;-70
2023/08/23 02:34:41;;;;;;;;;;;;;;;;;;5012707;28;19910;-70
2023/08/23 02:37:07;;;;;;;;;;;;;;;;;;5011941;28;20372;-69
2023/08/23 02:39:33;;;;;;;;;;;;;;;;;;5012127;28;19909;-73
2023/08/23 02:41:59;;;;;;;;;;;;;;;;;;5012233;28;19912;-73
2023/08/23 02:44:25;;;;;;;;;;;;;;;;;;5012460;28;20012;-76
2023/08/23 02:46:51;;;;;;;;;;;;;;;;;;4994430;28;20117;-73
2023/08/23 02:49:17;;;;;;;;;;;;;;;;;;5011846;28;19906;-73
2023/08/23 02:51:43;;;;;;;;;;;;;;;;;;5012193;28;20372;-73
2023/08/23 02:54:09;;;;;;;;;;;;;;;;;;5012594;28;19968;-71
2023/08/23 02:56:35;;;;;;;;;;;;;;;;;;5039539;22;20311;-71
2023/08/23 02:59:01;;;;;;;;;;;;;;;;;;5030593;28;19995;-71
2023/08/23 03:01:27;;;;;;;;;;;;;;;;;;5031561;28;19988;-72
2023/08/23 03:03:53;;;;;;;;;;;;;;;;;;5031669;28;19915;-71
2023/08/23 03:06:19;;;;;;;;;;;;;;;;;;5031597;28;20349;-71
2023/08/23 03:08:45;;;;;;;;;;;;;;;;;;5013179;28;19915;-71
2023/08/23 03:11:11;;;;;;;;;;;;;;;;;;5031342;28;19909;-71
2023/08/23 03:13:37;;;;;;;;;;;;;;;;;;5031595;28;19912;-71
2023/08/23 03:16:03;;;;;;;;;;;;;;;;;;5031370;28;19928;-72
2023/08/23 03:18:28;;;;;;;;;;;;;;;;;;5030715;28;19944;-70
2023/08/23 03:20:54;;;;;;;;;;;;;;;;;;5031248;28;20380;-70
2023/08/23 03:23:20;;;;;;;;;;;;;;;;;;5031169;28;19905;-70
2023/08/23 03:25:46;;;;;;;;;;;;;;;;;;5031114;28;19905;-71
2023/08/23 03:28:12;;;;;;;;;;;;;;;;;;5030607;28;20388;-71
2023/08/23 03:30:38;;;;;;;;;;;;;;;;;;5031320;28;19911;-71
2023/08/23 03:33:05;;;;;;;;;;;;;;;;;;5031393;28;19905;-72
2023/08/23 03:35:31;;;;;;;;;;;;;;;;;;5031264;28;20372;-69
2023/08/23 03:37:57;;;;;;;;;;;;;;;;;;5030409;28;19916;-71
2023/08/23 03:40:22;;;;;;;;;;;;;;;;;;5031192;28;19905;-72
2023/08/23 03:42:48;;;;;;;;;;;;;;;;;;5013472;28;19915;-71
2023/08/23 03:45:14;;;;;;;;;;;;;;;;;;5031355;28;19912;-69
2023/08/23 03:47:40;;;;;;;;;;;;;;;;;;5030500;28;20300;-71
2023/08/23 03:50:06;;;;;;;;;;;;;;;;;;5031248;28;19909;-70
2023/08/23 03:52:32;;;;;;;;;;;;;;;;;;5031095;28;19913;-72
2023/08/23 03:54:58;;;;;;;;;;;;;;;;;;5031277;28;20327;-71
2023/08/23 03:57:24;;;;;;;;;;;;;;;;;;5012420;28;19917;-71
2023/08/23 03:59:50;;;;;;;;;;;;;;;;;;5030915;28;19909;-70
2023/08/23 04:02:16;;;;;;;;;;;;;;;;;;5031114;28;19909;-71
2023/08/23 04:04:42;;;;;;;;;;;;;;;;;;5031008;28;19987;-70
2023/08/23 04:07:09;;;;;;;;;;;;;;;;;;5030365;28;20319;-71
2023/08/23 04:09:35;;;;;;;;;;;;;;;;;;5030878;28;20288;-72
2023/08/23 04:12:01;;;;;;;;;;;;;;;;;;5030953;28;19913;-71
2023/08/23 04:14:27;;;;;;;;;;;;;;;;;;5031000;28;19905;-71
2023/08/23 04:16:52;;;;;;;;;;;;;;;;;;5030654;28;19905;-71
2023/08/23 04:19:18;;;;;;;;;;;;;;;;;;5030437;28;20300;-71
2023/08/23 04:21:44;;;;;;;;;;;;;;;;;;5030811;28;19932;-72
2023/08/23 04:24:10;;;;;;;;;;;;;;;;;;5030916;28;19905;-72
2023/08/23 04:26:38;;;;;;;;;;;;;;;;;;5030338;28;19975;-71
2023/08/23 04:29:03;;;;;;;;;;;;;;;;;;5030120;28;19905;-72
2023/08/23 04:31:30;;;;;;;;;;;;;;;;;;5030407;28;19955;-72
2023/08/23 04:33:56;;;;;;;;;;;;;;;;;;5012669;28;19988;-71
2023/08/23 04:36:22;;;;;;;;;;;;;;;;;;5030809;28;19936;-71
2023/08/23 04:38:48;;;;;;;;;;;;;;;;;;5033675;28;20304;-71
2023/08/23 04:41:13;;;;;;;;;;;;;;;;;;5033680;28;20300;-71
2023/08/23 04:43:39;;;;;;;;;;;;;;;;;;5033625;28;19905;-71
2023/08/23 04:46:08;;;;;;;;;;;;;;;;;;5033694;28;19947;-70
2023/08/23 04:48:34;;;;;;;;;;;;;;;;;;5033134;28;19996;-70
2023/08/23 04:51:00;;;;;;;;;;;;;;;;;;5033777;28;20007;-72
2023/08/23 04:53:26;;;;;;;;;;;;;;;;;;5034169;28;19912;-72
2023/08/23 04:55:52;;;;;;;;;;;;;;;;;;5034118;28;19913;-72
2023/08/23 04:58:18;;;;;;;;;;;;;;;;;;5031864;28;20008;-71
2023/08/23 05:00:44;;;;;;;;;;;;;;;;;;5033789;28;19905;-70
2023/08/23 05:03:10;;;;;;;;;;;;;;;;;;5016800;28;19999;-71
2023/08/23 05:05:36;;;;;;;;;;;;;;;;;;5034643;28;19998;-70
2023/08/23 05:08:02;;;;;;;;;;;;;;;;;;5032834;28;19912;-70
2023/08/23 05:10:28;;;;;;;;;;;;;;;;;;5033564;28;20441;-71
2023/08/23 05:12:55;;;;;;;;;;;;;;;;;;5033389;28;19909;-72
2023/08/23 05:15:22;;;;;;;;;;;;;;;;;;5033237;28;19936;-72
2023/08/23 05:17:48;;;;;;;;;;;;;;;;;;5032330;28;19996;-70
2023/08/23 05:20:14;;;;;;;;;;;;;;;;;;5033175;28;20001;-71
2023/08/23 05:22:40;;;;;;;;;;;;;;;;;;5033217;28;19915;-70
2023/08/23 05:25:06;;;;;;;;;;;;;;;;;;5015221;28;19905;-70
2023/08/23 05:27:32;;;;;;;;;;;;;;;;;;5032843;28;19905;-68
2023/08/23 05:29:59;;;;;;;;;;;;;;;;;;5033305;28;19905;-69
2023/08/23 05:32:25;;;;;;;;;;;;;;;;;;5032150;28;19916;-68
2023/08/23 05:34:51;;;;;;;;;;;;;;;;;;5033229;28;19987;-69
2023/08/23 05:37:19;;;;;;;;;;;;;;;;;;5032198;28;19913;-70
2023/08/23 05:39:45;;;;;;;;;;;;;;;;;;5032602;28;19909;-69
2023/08/23 05:42:11;;;;;;;;;;;;;;;;;;5032804;28;19912;-71
2023/08/23 05:44:37;;;;;;;;;;;;;;;;;;5032606;28;20002;-70
2023/08/23 05:47:03;;;;;;;;;;;;;;;;;;5031934;28;20055;-70
2023/08/23 05:49:28;;;;;;;;;;;;;;;;;;5033592;28;20003;-69
2023/08/23 05:51:54;;;;;;;;;;;;;;;;;;5019378;28;20303;-70
2023/08/23 05:54:20;;;;;;;;;;;;;;;;;;5043198;28;19912;-70
2023/08/23 05:56:46;;;;;;;;;;;;;;;;;;5032527;28;19919;-69
2023/08/23 05:59:12;;;;;;;;;;;;;;;;;;5033340;28;19917;-70
2023/08/23 06:01:38;;;;;;;;;;;;;;;;;;5032219;28;20309;-70
2023/08/23 06:04:04;;;;;;;;;;;;;;;;;;5030861;28;19951;-71
2023/08/23 06:06:30;;;;;;;;;;;;;;;;;;5032612;28;20431;-71
2023/08/23 06:08:56;;;;;;;;;;;;;;;;;;5031872;28;19955;-71
2023/08/23 06:11:22;;;;;;;;;;;;;;;;;;5032330;28;19909;-70
2023/08/23 06:13:48;;;;;;;;;;;;;;;;;;5031947;28;20391;-69
2023/08/23 06:16:14;;;;;;;;;;;;;;;;;;5032291;28;19912;-70
2023/08/23 06:18:40;;;;;;;;;;;;;;;;;;5031443;28;19968;-70
2023/08/23 06:21:06;;;;;;;;;;;;;;;;;;5032119;28;19905;-69
2023/08/23 06:23:32;;;;;;;;;;;;;;;;;;5014209;28;19959;-70
2023/08/23 06:25:58;;;;;;;;;;;;;;;;;;5031966;28;19905;-70
2023/08/23 06:28:24;;;;;;;;;;;;;;;;;;5031079;28;19905;-69
2023/08/23 06:30:50;;;;;;;;;;;;;;;;;;5031878;28;19905;-69
2023/08/23 06:33:15;;;;;;;;;;;;;;;;;;5032124;28;19905;-69
2023/08/23 06:35:41;;;;;;;;;;;;;;;;;;5031523;28;20392;-68
2023/08/23 06:38:07;;;;;;;;;;;;;;;;;;5012987;28;19996;-70
2023/08/23 06:40:33;;;;;;;;;;;;;;;;;;5030263;28;19956;-70
2023/08/23 06:42:59;;;;;;;;;;;;;;;;;;5031669;28;19948;-69
2023/08/23 06:45:25;;;;;;;;;;;;;;;;;;5031686;28;19905;-69
2023/08/23 06:47:51;;;;;;;;;;;;;;;;;;5030660;28;19909;-71
2023/08/23 06:50:17;;;;;;;;;;;;;;;;;;5031490;28;19951;-69
2023/08/23 06:52:43;;;;;;;;;;;;;;;;;;5031170;28;19915;-69
2023/08/23 06:55:09;;;;;;;;;;;;;;;;;;5031007;28;20357;-71
2023/08/23 06:57:35;;;;;;;;;;;;;;;;;;5030277;28;20007;-69
2023/08/23 07:00:00;;;;;;;;;;;;;;;;;;5030596;28;19916;-69
2023/08/23 07:02:26;;;;;;;;;;;;;;;;;;5031295;28;19948;-70
2023/08/23 07:04:52;;;;;;;;;;;;;;;;;;5031400;28;20373;-69
2023/08/23 07:07:18;;;;;;;;;;;;;;;;;;5030582;28;19905;-70
2023/08/23 07:09:45;;;;;;;;;;;;;;;;;;5013441;28;20000;-70
2023/08/23 07:12:11;;;;;;;;;;;;;;;;;;5031346;28;20373;-68
2023/08/23 07:14:37;;;;;;;;;;;;;;;;;;5031055;28;19911;-69
2023/08/23 07:17:02;;;;;;;;;;;;;;;;;;5030762;28;20395;-68
2023/08/23 07:19:28;;;;;;;;;;;;;;;;;;5030708;28;19916;-69
2023/08/23 07:21:54;;;;;;;;;;;;;;;;;;5031200;28;19932;-69
2023/08/23 07:24:20;;;;;;;;;;;;;;;;;;5031273;28;20344;-69
2023/08/23 07:26:48;;;;;;;;;;;;;;;;;;5030730;28;19959;-67
2023/08/23 07:29:15;;;;;;;;;;;;;;;;;;5030430;28;19909;-68
2023/08/23 07:31:41;;;;;;;;;;;;;;;;;;5031207;28;19909;-68
2023/08/23 07:34:07;;;;;;;;;;;;;;;;;;5031114;28;19912;-69
2023/08/23 07:36:33;;;;;;;;;;;;;;;;;;5030863;28;19905;-68
2023/08/23 07:38:59;;;;;;;;;;;;;;;;;;5030166;28;19911;-67
2023/08/23 07:41:25;;;;;;;;;;;;;;;;;;5031381;28;20404;-68
2023/08/23 07:43:51;;;;;;;;;;;;;;;;;;5030966;28;20017;-68
2023/08/23 07:46:17;;;;;;;;;;;;;;;;;;5031046;28;20020;-69
2023/08/23 07:48:43;;;;;;;;;;;;;;;;;;5030376;28;19966;-69
2023/08/23 07:51:09;;;;;;;;;;;;;;;;;;5030826;28;19912;-68
2023/08/23 07:53:35;;;;;;;;;;;;;;;;;;5031040;28;19913;-68
2023/08/23 07:56:02;;;;;;;;;;;;;;;;;;5030931;28;19931;-69
2023/08/23 07:58:28;;;;;;;;;;;;;;;;;;5029765;28;20269;-68
2023/08/23 08:00:54;;;;;;;;;;;;;;;;;;5030861;28;19960;-69
2023/08/23 08:03:20;;;;;;;;;;;;;;;;;;5030975;28;19905;-70
2023/08/23 08:05:46;;;;;;;;;;;;;;;;;;5030785;28;19905;-68
2023/08/23 08:08:12;;;;;;;;;;;;;;;;;;5030323;28;20318;-69
2023/08/23 08:10:38;;;;;;;;;;;;;;;;;;5031237;28;19959;-70
2023/08/23 08:13:04;;;;;;;;;;;;;;;;;;5034194;28;19916;-69
2023/08/23 08:15:31;;;;;;;;;;;;;;;;;;5033284;28;19919;-69
2023/08/23 08:17:57;;;;;;;;;;;;;;;;;;5038108;28;19917;-69
2023/08/23 08:20:25;;;;;;;;;;;;;;;;;;5047935;28;19905;-67
2023/08/23 08:22:51;;;;;;;;;;;;;;;;;;5052825;28;20432;-69
2023/08/23 08:25:17;;;;;;;;;;;;;;;;;;5046412;28;19909;-68
2023/08/23 08:27:43;;;;;;;;;;;;;;;;;;5042616;28;19904;-69
2023/08/23 08:30:09;;;;;;;;;;;;;;;;;;5054382;28;20007;-69
2023/08/23 08:32:35;;;;;;;;;;;;;;;;;;5054036;28;19913;-70
2023/08/23 08:35:01;;;;;;;;;;;;;;;;;;5053964;28;19905;-69
2023/08/23 08:37:27;;;;;;;;;;;;;;;;;;5053472;28;19912;-69
2023/08/23 08:39:53;;;;;;;;;;;;;;;;;;5054305;28;19958;-66
2023/08/23 08:42:19;;;;;;;;;;;;;;;;;;5054055;28;20335;-67
2023/08/23 08:44:45;;;;;;;;;;;;;;;;;;5053916;28;19905;-68
2023/08/23 08:47:10;;;;;;;;;;;;;;;;;;5053363;28;19905;-65
2023/08/23 08:49:36;;;;;;;;;;;;;;;;;;5053889;28;19905;-68
2023/08/23 08:52:03;;;;;;;;;;;;;;;;;;5053784;28;19915;-68
2023/08/23 08:54:29;;;;;;;;;;;;;;;;;;5053783;28;19979;-68
2023/08/23 08:56:55;;;;;;;;;;;;;;;;;;5074675;22;19917;-67
2023/08/23 08:59:21;;;;;;;;;;;;;;;;;;5031574;28;19917;-68
2023/08/23 09:01:47;;;;;;;;;;;;;;;;;;5033405;28;19905;-68
2023/08/23 09:04:13;;;;;;;;;;;;;;;;;;5033397;28;19912;-68
2023/08/23 09:06:39;;;;;;;;;;;;;;;;;;5033055;28;19905;-68
2023/08/23 09:09:04;;;;;;;;;;;;;;;;;;5033068;28;19905;-68
2023/08/23 09:11:30;;;;;;;;;;;;;;;;;;5033297;28;19917;-68
2023/08/23 09:13:56;;;;;;;;;;;;;;;;;;5033443;28;20030;-69
2023/08/23 09:16:22;;;;;;;;;;;;;;;;;;5033563;28;19972;-68
2023/08/23 09:18:48;;;;;;;;;;;;;;;;;;5032932;28;19913;-68
2023/08/23 09:21:14;;;;;;;;;;;;;;;;;;5033481;28;19901;-68
2023/08/23 09:23:40;;;;;;;;;;;;;;;;;;5032529;28;20332;-68
2023/08/23 09:26:06;;;;;;;;;;;;;;;;;;5033207;28;19992;-67
2023/08/23 09:28:32;;;;;;;;;;;;;;;;;;5032930;28;19988;-68
2023/08/23 09:30:58;;;;;;;;;;;;;;;;;;5033117;28;19901;-68
2023/08/23 09:33:24;;;;;;;;;;;;;;;;;;5033130;28;20451;-68
2023/08/23 09:35:50;;;;;;;;;;;;;;;;;;5033219;28;19956;-67
2023/08/23 09:38:16;;;;;;;;;;;;;;;;;;5032459;28;20012;-68
2023/08/23 09:40:42;;;;;;;;;;;;;;;;;;5033121;28;19905;-68
2023/08/23 09:43:08;;;;;;;;;;;;;;;;;;5033490;28;19905;-68
2023/08/23 09:45:34;;;;;;;;;;;;;;;;;;5033490;28;19905;-69
2023/08/23 09:48:02;;;;;;;;;;;;;;;;;;5032654;28;19909;-68
2023/08/23 09:50:28;;;;;;;;;;;;;;;;;;5034140;28;19912;-69
2023/08/23 09:52:54;;;;;;;;;;;;;;;;;;5033481;28;19912;-68
2023/08/23 09:55:20;;;;;;;;;;;;;;;;;;5033292;28;19909;-69
2023/08/23 09:57:46;;;;;;;;;;;;;;;;;;5032300;28;20330;-68
2023/08/23 10:00:12;;;;;;;;;;;;;;;;;;5032598;28;19911;-68
2023/08/23 10:02:37;;;;;;;;;;;;;;;;;;5032394;28;19905;-67
2023/08/23 10:05:04;;;;;;;;;;;;;;;;;;5032455;28;20319;-68
2023/08/23 10:07:30;;;;;;;;;;;;;;;;;;5031704;28;20231;-68
2023/08/23 10:09:56;;;;;;;;;;;;;;;;;;5014507;28;20410;-68
2023/08/23 10:12:22;;;;;;;;;;;;;;;;;;5032324;28;19913;-68
2023/08/23 10:14:48;;;;;;;;;;;;;;;;;;5032428;28;20296;-68
2023/08/23 10:17:14;;;;;;;;;;;;;;;;;;5031346;28;19947;-69
2023/08/23 10:19:40;;;;;;;;;;;;;;;;;;5032177;28;20253;-67
2023/08/23 10:22:06;;;;;;;;;;;;;;;;;;5032024;28;20000;-68
2023/08/23 10:24:32;;;;;;;;;;;;;;;;;;5014299;28;19924;-67
2023/08/23 10:26:58;;;;;;;;;;;;;;;;;;5032039;28;19905;-67
2023/08/23 10:29:25;;;;;;;;;;;;;;;;;;5031516;28;19905;-68
2023/08/23 10:31:53;;;;;;;;;;;;;;;;;;5031709;28;19909;-68
2023/08/23 10:34:19;;;;;;;;;;;;;;;;;;5030921;28;19917;-68
2023/08/23 10:36:45;;;;;;;;;;;;;;;;;;5031620;28;19905;-68
2023/08/23 10:39:10;;;;;;;;;;;;;;;;;;5031311;28;20004;-68
2023/08/23 10:41:36;;;;;;;;;;;;;;;;;;5031541;28;19905;-68
2023/08/23 10:44:02;;;;;;;;;;;;;;;;;;5032123;28;19905;-68
2023/08/23 10:46:30;;;;;;;;;;;;;;;;;;5032239;28;19952;-68
2023/08/23 10:48:56;;;;;;;;;;;;;;;;;;5013394;28;19909;-67
2023/08/23 10:51:21;;;;;;;;;;;;;;;;;;5031671;28;19979;-68
2023/08/23 10:53:47;;;;;;;;;;;;;;;;;;5031642;28;19959;-68
2023/08/23 10:56:13;;;;;;;;;;;;;;;;;;5031627;28;19999;-67
2023/08/23 10:58:39;;;;;;;;;;;;;;;;;;5030411;28;19932;-67
2023/08/23 11:01:05;;;;;;;;;;;;;;;;;;5031263;28;19905;-67
2023/08/23 11:03:31;;;;;;;;;;;;;;;;;;5031310;28;19905;-67
2023/08/23 11:05:57;;;;;;;;;;;;;;;;;;5031285;28;19911;-66
2023/08/23 11:08:23;;;;;;;;;;;;;;;;;;5030842;28;19944;-67
2023/08/23 11:10:49;;;;;;;;;;;;;;;;;;5031367;28;19905;-67
2023/08/23 11:13:15;;;;;;;;;;;;;;;;;;5031599;28;19916;-68
2023/08/23 11:15:41;;;;;;;;;;;;;;;;;;5013476;28;19909;-67
2023/08/23 11:18:07;;;;;;;;;;;;;;;;;;5030755;28;19967;-67
2023/08/23 11:20:33;;;;;;;;;;;;;;;;;;5031103;28;19905;-67
2023/08/23 11:22:59;;;;;;;;;;;;;;;;;;5013339;28;19905;-68
2023/08/23 11:25:25;;;;;;;;;;;;;;;;;;5031530;28;20015;-67
2023/08/23 11:27:51;;;;;;;;;;;;;;;;;;5030740;28;19926;-67
2023/08/23 11:30:16;;;;;;;;;;;;;;;;;;5031117;28;19912;-68
2023/08/23 11:32:42;;;;;;;;;;;;;;;;;;5030920;28;19913;-66
2023/08/23 11:35:08;;;;;;;;;;;;;;;;;;5031183;28;19932;-68
2023/08/23 11:37:34;;;;;;;;;;;;;;;;;;5030768;28;20380;-67
2023/08/23 11:40:04;;;;;;;;;;;;;;;;;;5030978;28;19905;-67
2023/08/23 11:42:30;;;;;;;;;;;;;;;;;;5031073;28;19908;-68
2023/08/23 11:44:56;;;;;;;;;;;;;;;;;;5030974;28;20359;-68
2023/08/23 11:47:22;;;;;;;;;;;;;;;;;;5032081;28;20296;-67
2023/08/23 11:49:48;;;;;;;;;;;;;;;;;;5034638;28;19905;-67
2023/08/23 11:52:14;;;;;;;;;;;;;;;;;;5034585;28;19919;-68
2023/08/23 11:54:40;;;;;;;;;;;;;;;;;;5034839;28;19963;-68
2023/08/23 11:57:05;;;;;;;;;;;;;;;;;;5034314;28;19963;-68
2023/08/23 11:59:32;;;;;;;;;;;;;;;;;;5034195;28;19912;-68
2023/08/23 12:01:57;;;;;;;;;;;;;;;;;;5021359;28;20419;-68
2023/08/23 12:04:23;;;;;;;;;;;;;;;;;;5014359;28;19905;-68
2023/08/23 12:06:49;;;;;;;;;;;;;;;;;;5022682;28;19927;-68
2023/08/23 12:09:15;;;;;;;;;;;;;;;;;;5033219;28;19952;-68
2023/08/23 12:11:41;;;;;;;;;;;;;;;;;;5034350;28;20300;-68
2023/08/23 12:14:07;;;;;;;;;;;;;;;;;;5034495;28;19906;-67
2023/08/23 12:16:33;;;;;;;;;;;;;;;;;;5033937;28;19948;-67
2023/08/23 12:18:59;;;;;;;;;;;;;;;;;;5033098;28;20003;-67
2023/08/23 12:21:25;;;;;;;;;;;;;;;;;;5034265;28;19958;-67
2023/08/23 12:23:51;;;;;;;;;;;;;;;;;;5034285;28;20296;-67
2023/08/23 12:26:16;;;;;;;;;;;;;;;;;;5034470;28;19905;-68
2023/08/23 12:28:42;;;;;;;;;;;;;;;;;;5033580;28;19905;-67
2023/08/23 12:31:09;;;;;;;;;;;;;;;;;;5034148;28;19905;-68
2023/08/23 12:33:35;;;;;;;;;;;;;;;;;;5034092;28;20004;-68
2023/08/23 12:36:01;;;;;;;;;;;;;;;;;;5033967;28;19983;-68
2023/08/23 12:38:27;;;;;;;;;;;;;;;;;;5009562;28;19932;-68
2023/08/23 12:40:53;;;;;;;;;;;;;;;;;;5033090;28;19905;-68
2023/08/23 12:43:19;;;;;;;;;;;;;;;;;;5033305;28;19909;-68
2023/08/23 12:45:45;;;;;;;;;;;;;;;;;;5034065;28;20388;-67
2023/08/23 12:48:11;;;;;;;;;;;;;;;;;;5015408;28;19905;-68
2023/08/23 12:50:37;;;;;;;;;;;;;;;;;;5034015;28;20383;-68
2023/08/23 12:53:03;;;;;;;;;;;;;;;;;;5032986;28;19916;-68
2023/08/23 12:55:29;;;;;;;;;;;;;;;;;;5033858;28;19912;-68
2023/08/23 12:57:55;;;;;;;;;;;;;;;;;;5031708;28;20434;-68
2023/08/23 13:00:21;;;;;;;;;;;;;;;;;;5032199;28;19920;-68
2023/08/23 13:02:47;;;;;;;;;;;;;;;;;;5033291;28;19916;-68
2023/08/23 13:05:13;;;;;;;;;;;;;;;;;;5033763;28;19905;-68
2023/08/23 13:07:39;;;;;;;;;;;;;;;;;;5033059;28;19909;-68
2023/08/23 13:10:05;;;;;;;;;;;;;;;;;;5033106;28;20372;-68
2023/08/23 13:12:31;;;;;;;;;;;;;;;;;;5031881;28;19983;-69
2023/08/23 13:14:56;;;;;;;;;;;;;;;;;;5033094;28;19940;-68
2023/08/23 13:17:22;;;;;;;;;;;;;;;;;;5031900;28;19915;-68
2023/08/23 13:19:48;;;;;;;;;;;;;;;;;;5032895;28;19974;-68
2023/08/23 13:22:14;;;;;;;;;;;;;;;;;;5032912;28;19905;-69
2023/08/23 13:24:42;;;;;;;;;;;;;;;;;;5031935;28;19909;-69
2023/08/23 13:27:08;;;;;;;;;;;;;;;;;;5032716;28;19905;-69
2023/08/23 13:29:34;;;;;;;;;;;;;;;;;;5032834;28;20289;-68
2023/08/23 13:32:00;;;;;;;;;;;;;;;;;;5031431;28;19913;-67
2023/08/23 13:34:26;;;;;;;;;;;;;;;;;;5033232;28;19912;-68
2023/08/23 13:36:52;;;;;;;;;;;;;;;;;;5032691;28;19901;-67
2023/08/23 13:39:18;;;;;;;;;;;;;;;;;;5032305;28;19905;-67
2023/08/23 13:41:44;;;;;;;;;;;;;;;;;;5014953;28;20260;-68
2023/08/23 13:44:10;;;;;;;;;;;;;;;;;;5032910;28;19915;-68
2023/08/23 13:46:36;;;;;;;;;;;;;;;;;;5014997;28;19901;-68
2023/08/23 13:49:02;;;;;;;;;;;;;;;;;;5032303;28;19920;-68
2023/08/23 13:51:28;;;;;;;;;;;;;;;;;;5032875;28;20327;-68
2023/08/23 13:53:54;;;;;;;;;;;;;;;;;;5032929;28;19912;-68
2023/08/23 13:56:20;;;;;;;;;;;;;;;;;;5032769;28;19913;-68
2023/08/23 13:58:46;;;;;;;;;;;;;;;;;;5031971;28;19959;-67
2023/08/23 14:01:11;;;;;;;;;;;;;;;;;;5032882;28;19963;-67
2023/08/23 14:03:37;;;;;;;;;;;;;;;;;;5032984;28;19905;-68
2023/08/23 14:06:03;;;;;;;;;;;;;;;;;;5032553;28;19905;-67
2023/08/23 14:08:29;;;;;;;;;;;;;;;;;;5033094;28;19909;-66
2023/08/23 14:10:55;;;;;;;;;;;;;;;;;;5052332;28;19905;-67
2023/08/23 14:13:22;;;;;;;;;;;;;;;;;;5052177;28;19990;-68
2023/08/23 14:15:48;;;;;;;;;;;;;;;;;;5052155;28;20360;-68
2023/08/23 14:18:14;;;;;;;;;;;;;;;;;;5051562;28;19905;-69
2023/08/23 14:20:40;;;;;;;;;;;;;;;;;;5050722;28;20500;-67
2023/08/23 14:23:06;;;;;;;;;;;;;;;;;;5050248;28;19999;-68
2023/08/23 14:25:32;;;;;;;;;;;;;;;;;;5050558;28;19927;-67
2023/08/23 14:27:58;;;;;;;;;;;;;;;;;;5049326;28;19905;-67
2023/08/23 14:30:24;;;;;;;;;;;;;;;;;;5049988;28;19904;-67
2023/08/23 14:32:50;;;;;;;;;;;;;;;;;;5050291;28;19913;-67
2023/08/23 14:35:15;;;;;;;;;;;;;;;;;;5050848;28;19950;-69
2023/08/23 14:37:41;;;;;;;;;;;;;;;;;;5051009;28;19905;-68
2023/08/23 14:40:07;;;;;;;;;;;;;;;;;;5051825;28;20003;-68
2023/08/23 14:42:33;;;;;;;;;;;;;;;;;;5051592;28;19995;-68
2023/08/23 14:44:59;;;;;;;;;;;;;;;;;;5051698;28;20267;-69
2023/08/23 14:47:25;;;;;;;;;;;;;;;;;;5051078;28;19914;-70
2023/08/23 14:49:51;;;;;;;;;;;;;;;;;;5051669;28;19912;-67
2023/08/23 14:52:18;;;;;;;;;;;;;;;;;;5051719;28;19959;-68
2023/08/23 14:54:44;;;;;;;;;;;;;;;;;;5051578;28;19984;-67
2023/08/23 14:57:13;;;;;;;;;;;;;;;;;;5051047;28;19908;-68
2023/08/23 14:59:41;;;;;;;;;;;;;;;;;;5052118;28;19913;-68
2023/08/23 15:02:07;;;;;;;;;;;;;;;;;;5051697;28;19909;-68
2023/08/23 15:04:33;;;;;;;;;;;;;;;;;;5051097;28;19951;-68
2023/08/23 15:06:59;;;;;;;;;;;;;;;;;;5051025;28;19909;-67
2023/08/23 15:09:25;;;;;;;;;;;;;;;;;;5050862;28;19919;-68
2023/08/23 15:11:52;;;;;;;;;;;;;;;;;;5051078;28;20368;-67
2023/08/23 15:14:18;;;;;;;;;;;;;;;;;;5051440;28;19908;-68
2023/08/23 15:16:44;;;;;;;;;;;;;;;;;;5051345;28;20300;-68
2023/08/23 15:19:10;;;;;;;;;;;;;;;;;;5032421;28;19913;-69
2023/08/23 15:21:36;;;;;;;;;;;;;;;;;;5050204;28;19909;-68
2023/08/23 15:24:02;;;;;;;;;;;;;;;;;;5050788;28;20267;-68
2023/08/23 15:26:28;;;;;;;;;;;;;;;;;;5050848;28;19901;-67
2023/08/23 15:28:54;;;;;;;;;;;;;;;;;;5050283;28;19905;-68
2023/08/23 15:31:20;;;;;;;;;;;;;;;;;;5051102;28;19936;-68
2023/08/23 15:33:46;;;;;;;;;;;;;;;;;;5050688;28;19904;-68
2023/08/23 15:36:12;;;;;;;;;;;;;;;;;;5050808;28;19950;-68
2023/08/23 15:38:38;;;;;;;;;;;;;;;;;;5050302;28;19905;-68
2023/08/23 15:41:04;;;;;;;;;;;;;;;;;;5050813;28;19905;-68
2023/08/23 15:43:30;;;;;;;;;;;;;;;;;;5050789;28;20291;-68
2023/08/23 15:45:55;;;;;;;;;;;;;;;;;;5051103;28;19969;-67
2023/08/23 15:48:21;;;;;;;;;;;;;;;;;;5032476;28;19966;-68
2023/08/23 15:50:47;;;;;;;;;;;;;;;;;;5050779;28;20010;-68
2023/08/23 15:53:13;;;;;;;;;;;;;;;;;;5050935;28;19915;-68
2023/08/23 15:55:39;;;;;;;;;;;;;;;;;;5033185;28;19911;-68
2023/08/23 15:58:05;;;;;;;;;;;;;;;;;;5050253;28;20347;-68
2023/08/23 16:00:31;;;;;;;;;;;;;;;;;;5051128;28;19976;-68
2023/08/23 16:02:57;;;;;;;;;;;;;;;;;;5050746;28;19928;-68
2023/08/23 16:05:23;;;;;;;;;;;;;;;;;;5032968;28;19935;-68
2023/08/23 16:07:49;;;;;;;;;;;;;;;;;;5050018;28;19951;-68
2023/08/23 16:10:15;;;;;;;;;;;;;;;;;;5050515;28;19912;-68
2023/08/23 16:12:41;;;;;;;;;;;;;;;;;;5050379;28;20426;-68
2023/08/23 16:15:07;;;;;;;;;;;;;;;;;;5050696;28;19905;-68
2023/08/23 16:17:33;;;;;;;;;;;;;;;;;;5049866;28;19905;-68
2023/08/23 16:19:58;;;;;;;;;;;;;;;;;;5050854;28;19911;-67
2023/08/23 16:22:25;;;;;;;;;;;;;;;;;;5050563;28;19912;-67
2023/08/23 16:24:51;;;;;;;;;;;;;;;;;;5050307;28;19909;-68
2023/08/23 16:27:17;;;;;;;;;;;;;;;;;;5049845;28;20058;-68
2023/08/23 16:29:43;;;;;;;;;;;;;;;;;;5050831;28;19905;-68
2023/08/23 16:32:09;;;;;;;;;;;;;;;;;;5051721;28;20376;-68
2023/08/23 16:34:35;;;;;;;;;;;;;;;;;;5054062;28;19908;-68
2023/08/23 16:37:01;;;;;;;;;;;;;;;;;;5053791;28;20287;-68